ADDS METAR Data INFO
IDs: Format: Raw Decoded Include TAF

Data at: 2146 UTC 15 Dec 2017

KEGE 152056Z 26003KT 10SM CLR 00/M12 A3023 RMK AO2 SLP306 T00001117 56049
KEGE 151956Z 00000KT 10SM CLR M02/M12 A3027 RMK AO2 SLP325 T10171122
KEGE 151856Z 00000KT 10SM CLR M05/M13 A3034 RMK AO2 SLP355 T10501128
KEGE 151756Z 27003KT 10SM CLR M08/M13 A3041 RMK AO2 SLP386 T10781128 11078 21156 58006
KEGE 151656Z 00000KT 10SM CLR M10/M14 A3044 RMK AO2 SLP401 T11001144
KEGE 151556Z 00000KT 10SM CLR M12/M16 A3044 RMK AO2 SLP402 T11171156
KEGE 151456Z 09003KT 10SM FEW005 M16/M18 A3043 RMK AO2 SLP407 T11561178 51001
KEGE 151356Z 00000KT 10SM CLR M15/M18 A3043 RMK AO2 SLP397 T11501178
KEGE 151256Z 00000KT 10SM CLR M15/M18 A3043 RMK AO2 SLP392 T11501178 FZRANO
KEGE 151156Z 14003KT 10SM CLR M15/M17 A3042 RMK AO2 SLP379 70001 T11501167 11111 21150 58001 FZRANO
KEGE 151056Z 00000KT 10SM CLR M14/M17 A3043 RMK AO2 SLP375 T11391167 FZRANO
KEGE 150956Z 00000KT 10SM CLR M13/M16 A3045 RMK AO2 SLP375 T11331161 FZRANO
KEGE 150856Z 11006KT 10SM CLR M13/M16 A3043 RMK AO2 SLP368 T11331156 55000 FZRANO
KEGE 150756Z 00000KT 10SM CLR M13/M16 A3041 RMK AO2 SLP362 T11281156 FZRANO
KEGE 150656Z 12004KT 10SM CLR M12/M14 A3042 RMK AO2 SLP369 T11171144 FZRANO
KEGE 150556Z 00000KT 10SM CLR M12/M15 A3043 RMK AO2 SLP378 T11171150 10006 21117 400391117 51012 FZRANO
KEGE 150456Z 13003KT 10SM CLR M11/M14 A3042 RMK AO2 SLP364 T11061139 FZRANO
KEGE 150356Z 10004KT 10SM CLR M08/M13 A3040 RMK AO2 SLP363 T10831128 FZRANO
KEGE 150256Z 16003KT 10SM CLR M08/M13 A3039 RMK AO2 SLP360 T10831128 51020 FZRANO
KEGE 150156Z 09007KT 10SM CLR M05/M11 A3037 RMK AO2 SLP342 T10501111
KEGE 150056Z 14004KT 10SM CLR M03/M11 A3034 RMK AO2 SLP325 T10281106
KEGE 142356Z COR 00000KT 10SM CLR 00/M12 A3032 RMK AO2 SLP307 T00001117 10039 21022 51016
KEGE 142256Z 08007KT 10SM SCT060 01/M12 A3031 RMK AO2 SLP301 T00111122
KEGE 142156Z COR 06009KT 10SM SCT055 03/M11 A3029 RMK AO2 SLP287 T00331106
KEGE 142056Z 24005KT 10SM BKN055 03/M08 A3026 RMK AO2 SLP281 T00281083 56010
KEGE 141956Z 00000KT 10SM OVC050 02/M09 A3026 RMK AO2 SLP281 T00221089
KEGE 141856Z 25003KT 10SM CLR 01/M04 A3028 RMK AO2 SLP288 T00061044
KEGE 141756Z 24003KT 10SM BKN041 M02/M03 A3030 RMK AO2 SLP303 60001 T10171033 10017 21050 51015
KEGE 141734Z 00000KT 10SM BKN041 M02/M03 A3030 RMK AO2
KEGE 141656Z 25003KT 6SM HZ OVC002 00/M03 A3030 RMK AO2 SLP297 T00001033
KEGE 141628Z 00000KT 7SM OVC002 00/M03 A3029 RMK AO2
KEGE 141616Z 00000KT 2SM BR OVC002 M03/M03 A3028 RMK AO2 VIS 1/2V5
KEGE 141613Z 00000KT 1SM BR OVC002 M03/M04 A3028 RMK AO2 VIS 1/2V5 RVRNO
KEGE 141606Z 00000KT 1/2SM FZFG OVC002 M03/M04 A3028 RMK AO2 RVRNO
KEGE 141602Z 00000KT 1SM BR OVC002 M03/M03 A3028 RMK AO2 RVRNO
KEGE 141600Z 00000KT 2 1/2SM BR OVC002 M03/M03 A3028 RMK AO2 VIS 3/4V5
KEGE 141556Z 08003KT 4SM BR BKN004 M03/M04 A3027 RMK AO2 SLP297 T10281039
KEGE 141456Z 10003KT 7SM OVC004 M04/M04 A3025 RMK AO2 SLP288 60001 T10391044 53025
KEGE 141410Z 13005KT 9SM BKN004 BKN031 M04/M05 A3022 RMK AO2
KEGE 141356Z 00000KT 9SM BKN031 M04/M05 A3021 RMK AO2 SLP275 T10441050
KEGE 141314Z AUTO 17006KT 10SM SCT022 OVC033 M04/M04 A3019 RMK AO2 FZRANO
KEGE 141256Z AUTO 29003KT 2 1/2SM BR OVC018 M03/M05 A3018 RMK AO2 VIS 1/2V5 SNE56 SLP262 P0001 T10331050 FZRANO
KEGE 141235Z AUTO 00000KT 3SM -SN BR OVC020 M03/M03 A3017 RMK AO2 P0001 FZRANO
KEGE 141207Z AUTO 13004KT 1 3/4SM -SN BR BKN022 OVC040 M03/M04 A3016 RMK AO2 P0001 FZRANO
KEGE 141156Z AUTO 10004KT 2 1/2SM -SN BR SCT024 OVC038 M03/M04 A3016 RMK AO2 SLP253 P0001 60005 7//// T10281039 11017 21033 51008 FZRANO
KEGE 141150Z AUTO 09004KT 2 1/2SM -SN BR FEW026 OVC038 M03/M04 A3016 RMK AO2 P0001 FZRANO
KEGE 141138Z AUTO 11003KT 2 1/2SM -SN BR SCT024 BKN029 OVC038 M03/M04 A3015 RMK AO2 VIS 2V3 P0001 FZRANO
KEGE 141120Z AUTO 05003KT 3SM -SN BR OVC022 M03/M04 A3015 RMK AO2 P0001 FZRANO
KEGE 141056Z AUTO 00000KT 2SM -SN BR OVC016 M03/M04 A3014 RMK AO2 VIS 1 3/4V3 SLP245 P0002 T10281039 FZRANO
KEGE 140956Z AUTO 00000KT 1 1/2SM -SN BR OVC018 M03/M04 A3013 RMK AO2 SLP240 P0002 T10281039 FZRANO